Friday, November 17, 2017, 7:29 PM GMT
Back to Local

CWPE, Point Lepreau, N. B.

Location: , , Canada Lat: 45.067
Local Time: 7:29 PM GMT (19:29 GMT) Lon: -66.467
Time Zone: GMT Elev: 3 ft

Show me the last for .
Show Coded

Time T Td Feel RH Dir Speed Gust Alt SLP Vis Weather Sky Remarks
2017-11-17 19:00 40 35 29 81 300° 14 29 - 29.50 0 None
2017-11-17 18:00 41 36 30 83 310° 14 25 - 29.48 0 None
2017-11-17 17:00 40 37 29 88 310° 14 29 - 29.46 0 None
2017-11-17 16:00 40 38 29 91 310° 15 30 - 29.44 0 None
2017-11-17 15:00 40 37 28 90 300° 15 30 - 29.42 0 None
2017-11-17 14:00 39 37 28 92 290° 14 26 - 29.39 0 None
2017-11-17 13:00 39 37 28 93 280° 14 26 - 29.38 0 None
2017-11-17 12:00 39 38 28 95 290° 13 25 - 29.37 0 None
2017-11-17 11:00 40 39 29 97 290° 12 23 - 29.36 0 None
2017-11-17 10:00 41 40 30 97 290° 13 28 - 29.33 0 None
2017-11-17 09:00 42 42 33 98 270° 10 22 - 29.32 0 None
2017-11-17 08:00 45 45 38 97 280° 8 17 - 29.31 0 None
2017-11-17 07:00 46 46 42 99 310° 8 - - 29.32 0 None
2017-11-17 06:00 47 49 45 106 50° 6 - - 29.36 0 None
2017-11-17 05:00 48 48 45 98 40° 7 - - 29.41 0 Pressure falling rapidly
2017-11-17 04:00 48 47 47 97 30° 3 - - 29.50 0 Pressure falling rapidly
2017-11-17 03:00 49 48 - 96 280° 2 - - 29.57 0 Pressure falling rapidly
2017-11-17 02:00 51 50 - 96 130° 17 - - 29.63 0 None
2017-11-17 01:00 51 50 - 96 140° 20 29 - 29.67 0 None
2017-11-17 00:00 50 48 43 95 110° 14 20 - 29.70 0 Pressure falling rapidly
2017-11-16 23:00 50 47 42 91 120° 20 26 - 29.76 0 None
2017-11-16 22:00 49 46 41 88 130° 21 28 - 29.79 0 None
2017-11-16 21:00 49 45 43 84 120° 21 - - 29.81 0 None
2017-11-16 20:00 49 45 41 86 130° 18 25 - 29.85 0 None

Support USWX by starting your Amazon purchase here.